createdAt,value
2022-10-02T00:00:49.661Z,0.00
2022-10-02T00:01:49.793Z,0.00
2022-10-02T00:02:49.712Z,0.00
2022-10-02T00:03:49.788Z,0.00
2022-10-02T00:04:49.764Z,0.00
2022-10-02T00:05:49.791Z,0.00
2022-10-02T00:06:49.816Z,0.00
2022-10-02T00:07:49.844Z,0.00
2022-10-02T00:08:49.868Z,0.00
2022-10-02T00:09:49.895Z,0.00
2022-10-02T00:10:49.920Z,0.00
2022-10-02T00:11:49.947Z,0.00
2022-10-02T00:12:49.977Z,0.00
2022-10-02T00:13:49.998Z,0.00
2022-10-02T00:14:50.044Z,0.00
2022-10-02T00:15:50.050Z,0.00
2022-10-02T00:16:50.153Z,0.00
2022-10-02T00:17:50.101Z,0.00
2022-10-02T00:18:50.128Z,0.00
2022-10-02T00:19:50.154Z,0.00
2022-10-02T00:20:50.181Z,0.00
2022-10-02T00:21:50.205Z,0.00
2022-10-02T00:22:50.235Z,0.00
2022-10-02T00:23:50.258Z,0.00
2022-10-02T00:24:50.287Z,0.00
2022-10-02T00:25:50.309Z,0.00
2022-10-02T00:26:50.337Z,0.00
2022-10-02T00:27:50.386Z,0.00
2022-10-02T00:28:50.389Z,0.00
2022-10-02T00:29:50.416Z,0.00
2022-10-02T00:30:50.460Z,0.00
2022-10-02T00:31:50.560Z,0.00
2022-10-02T00:32:50.493Z,0.00
2022-10-02T00:33:50.519Z,0.00
2022-10-02T00:34:50.546Z,0.00
2022-10-02T00:35:50.573Z,0.00
2022-10-02T00:36:50.598Z,0.00
2022-10-02T00:37:50.622Z,0.00
2022-10-02T00:38:50.648Z,0.00
2022-10-02T00:39:50.675Z,0.00
2022-10-02T00:40:50.702Z,0.00
2022-10-02T00:41:50.725Z,0.00
2022-10-02T00:42:50.753Z,0.00
2022-10-02T00:43:50.778Z,0.00
2022-10-02T00:44:50.809Z,0.00
2022-10-02T00:45:50.883Z,0.00
2022-10-02T00:46:50.901Z,0.00
2022-10-02T00:47:50.882Z,0.00
2022-10-02T00:48:50.912Z,0.00
2022-10-02T00:49:50.933Z,0.00
2022-10-02T00:50:50.960Z,0.00
2022-10-02T00:51:50.985Z,0.00
2022-10-02T00:52:51.014Z,0.00
2022-10-02T00:53:51.039Z,0.00
2022-10-02T00:54:51.075Z,0.00
2022-10-02T00:55:51.091Z,0.00
2022-10-02T00:56:51.118Z,0.00
2022-10-02T00:57:51.143Z,0.00
2022-10-02T00:58:51.171Z,0.00
2022-10-02T00:59:51.196Z,0.00
2022-10-02T01:00:51.242Z,0.00
2022-10-02T01:01:51.277Z,0.00
2022-10-02T01:02:51.293Z,0.00
2022-10-02T01:03:51.299Z,0.00
2022-10-02T01:04:51.329Z,0.00
2022-10-02T01:05:51.352Z,0.00
2022-10-02T01:06:51.379Z,0.00
2022-10-02T01:07:51.404Z,0.00
2022-10-02T01:08:51.433Z,0.00
2022-10-02T01:09:51.455Z,0.00
2022-10-02T01:10:51.484Z,0.00
2022-10-02T01:11:51.509Z,0.00
2022-10-02T01:12:51.537Z,0.00
2022-10-02T01:13:51.560Z,0.00
2022-10-02T01:14:51.588Z,0.00
2022-10-02T01:15:51.616Z,0.00
2022-10-02T01:16:51.693Z,0.00
2022-10-02T01:17:51.666Z,0.00
2022-10-02T01:18:51.713Z,0.00
2022-10-02T01:19:51.721Z,0.00
2022-10-02T01:20:51.747Z,0.00
2022-10-02T01:21:51.770Z,0.00
2022-10-02T01:22:51.799Z,0.00
2022-10-02T01:23:51.823Z,0.00
2022-10-02T01:24:51.855Z,0.00
2022-10-02T01:25:51.876Z,0.00
2022-10-02T01:26:51.905Z,0.00
2022-10-02T01:27:52.010Z,0.00
2022-10-02T01:28:51.957Z,0.00
2022-10-02T01:29:51.981Z,0.00
2022-10-02T01:30:52.009Z,0.00
2022-10-02T01:31:52.060Z,0.00
2022-10-02T01:32:52.063Z,0.00
2022-10-02T01:33:52.086Z,0.00
2022-10-02T01:34:52.134Z,0.00
2022-10-02T01:35:52.139Z,0.00
2022-10-02T01:36:52.168Z,0.00
2022-10-02T01:37:52.192Z,0.00
2022-10-02T01:38:52.220Z,0.00
2022-10-02T01:39:52.246Z,0.00
2022-10-02T01:40:52.275Z,0.00
2022-10-02T01:41:52.298Z,0.00
2022-10-02T01:42:52.325Z,0.00
2022-10-02T01:43:52.352Z,0.00
2022-10-02T01:44:52.383Z,0.00
2022-10-02T01:45:52.469Z,0.00
2022-10-02T01:46:52.431Z,0.00
2022-10-02T01:47:52.456Z,0.00
2022-10-02T01:48:52.485Z,0.00
2022-10-02T01:49:52.509Z,0.00
2022-10-02T01:50:52.556Z,0.00
2022-10-02T01:51:52.563Z,0.00
2022-10-02T01:52:52.591Z,0.00
2022-10-02T01:53:52.615Z,0.00
2022-10-02T01:54:52.645Z,0.00
2022-10-02T01:55:52.669Z,0.00
2022-10-02T01:56:52.697Z,0.00
2022-10-02T01:57:52.721Z,0.00
2022-10-02T01:58:52.749Z,0.00
2022-10-02T01:59:52.876Z,0.00
2022-10-02T02:00:52.991Z,0.00
2022-10-02T02:01:52.933Z,0.00
2022-10-02T02:02:52.908Z,0.00
2022-10-02T02:03:52.881Z,0.00
2022-10-02T02:04:52.907Z,0.00
2022-10-02T02:05:52.938Z,0.00
2022-10-02T02:06:52.983Z,0.00
2022-10-02T02:07:52.985Z,0.00
2022-10-02T02:08:53.018Z,0.00
2022-10-02T02:09:53.040Z,0.00
2022-10-02T02:10:53.068Z,0.00
2022-10-02T02:11:53.093Z,0.00
2022-10-02T02:12:53.121Z,0.00
2022-10-02T02:13:53.146Z,0.00
2022-10-02T02:14:53.172Z,0.00
2022-10-02T02:15:53.198Z,0.00
2022-10-02T02:16:53.294Z,0.00
2022-10-02T02:17:53.251Z,0.00
2022-10-02T02:18:53.279Z,0.00
2022-10-02T02:19:53.307Z,0.00
2022-10-02T02:20:53.355Z,0.00
2022-10-02T02:21:53.358Z,0.00
2022-10-02T02:22:53.405Z,0.00
2022-10-02T02:23:53.412Z,0.00
2022-10-02T02:24:53.441Z,0.00
2022-10-02T02:25:53.463Z,0.00
2022-10-02T02:26:53.493Z,0.00
2022-10-02T02:27:53.544Z,0.00
2022-10-02T02:28:53.549Z,0.00
2022-10-02T02:29:53.575Z,0.00
2022-10-02T02:30:53.599Z,0.00
2022-10-02T02:31:53.671Z,0.00
2022-10-02T02:32:53.655Z,0.00
2022-10-02T02:33:53.682Z,0.00
2022-10-02T02:34:53.705Z,0.00
2022-10-02T02:35:53.731Z,0.00
2022-10-02T02:36:53.759Z,0.00
2022-10-02T02:37:53.785Z,0.00
2022-10-02T02:38:53.831Z,0.00
2022-10-02T02:39:53.845Z,0.00
2022-10-02T02:40:53.868Z,0.00
2022-10-02T02:41:53.892Z,0.00
2022-10-02T02:42:53.921Z,0.00
2022-10-02T02:43:53.947Z,0.00
2022-10-02T02:44:53.973Z,0.00
2022-10-02T02:45:54.074Z,0.00
2022-10-02T02:46:54.027Z,0.00
2022-10-02T02:47:54.061Z,0.00
2022-10-02T02:48:54.080Z,0.00
2022-10-02T02:49:54.104Z,0.00
2022-10-02T02:50:54.133Z,0.00
2022-10-02T02:51:54.158Z,0.00
2022-10-02T02:52:54.187Z,0.00
2022-10-02T02:53:54.210Z,0.00
2022-10-02T02:54:54.257Z,0.00
2022-10-02T02:55:54.263Z,0.00
2022-10-02T02:56:54.293Z,0.00
2022-10-02T02:57:54.316Z,0.00
2022-10-02T02:58:54.345Z,0.00
2022-10-02T02:59:54.370Z,0.00
2022-10-02T03:00:54.462Z,0.00
2022-10-02T03:01:54.517Z,0.00
2022-10-02T03:02:54.450Z,0.00
2022-10-02T03:03:54.476Z,0.00
2022-10-02T03:04:54.504Z,0.00
2022-10-02T03:05:54.528Z,0.00
2022-10-02T03:06:54.557Z,0.00
2022-10-02T03:07:54.580Z,0.00
2022-10-02T03:08:54.608Z,0.00
2022-10-02T03:09:54.634Z,0.00
2022-10-02T03:10:54.679Z,0.00
2022-10-02T03:11:54.689Z,0.00
2022-10-02T03:12:54.719Z,0.00
2022-10-02T03:13:54.740Z,0.00
2022-10-02T03:14:54.770Z,0.00
2022-10-02T03:15:54.851Z,0.00
2022-10-02T03:16:54.822Z,0.00
2022-10-02T03:17:54.847Z,0.00
2022-10-02T03:18:54.880Z,0.00
2022-10-02T03:19:54.899Z,0.00
2022-10-02T03:20:54.930Z,0.00
2022-10-02T03:21:54.953Z,0.00
2022-10-02T03:22:54.984Z,0.00
2022-10-02T03:23:55.006Z,0.00
2022-10-02T03:24:55.036Z,0.00
2022-10-02T03:25:55.060Z,0.00
2022-10-02T03:26:55.109Z,0.00
2022-10-02T03:27:55.178Z,0.00
2022-10-02T03:28:56.747Z,0.00
2022-10-02T03:29:55.166Z,0.00
2022-10-02T03:30:55.197Z,0.00
2022-10-02T03:31:55.289Z,0.00
2022-10-02T03:32:55.250Z,0.00
2022-10-02T03:33:55.278Z,0.00
2022-10-02T03:34:55.301Z,0.00
2022-10-02T03:35:55.327Z,0.00
2022-10-02T03:36:55.356Z,0.00
2022-10-02T03:37:55.380Z,0.00
2022-10-02T03:39:19.691Z,0.00
2022-10-02T03:39:55.433Z,0.00
2022-10-02T03:40:55.463Z,0.00
2022-10-02T03:41:55.488Z,0.00
2022-10-02T03:42:55.533Z,0.00
2022-10-02T03:43:55.542Z,0.00
2022-10-02T03:44:55.571Z,0.00
2022-10-02T03:45:55.595Z,0.00
2022-10-02T03:46:55.721Z,0.00
2022-10-02T03:47:55.651Z,0.00
2022-10-02T03:48:55.680Z,0.00
2022-10-02T03:49:55.703Z,0.00
2022-10-02T03:50:55.733Z,0.00
2022-10-02T03:51:55.758Z,0.00
2022-10-02T03:52:55.787Z,0.00
2022-10-02T03:53:55.812Z,0.00
2022-10-02T03:54:55.841Z,0.00
2022-10-02T03:55:55.868Z,0.00
2022-10-02T03:56:55.899Z,0.00
2022-10-02T03:57:55.919Z,0.00
2022-10-02T03:58:55.967Z,0.00
2022-10-02T03:59:55.974Z,0.00
2022-10-02T04:00:56.003Z,0.00
2022-10-02T04:01:56.060Z,0.00
2022-10-02T04:02:56.058Z,0.00
2022-10-02T04:03:56.149Z,0.00
2022-10-02T04:04:56.111Z,0.00
2022-10-02T04:05:56.135Z,0.00
2022-10-02T04:06:56.165Z,0.00
2022-10-02T04:07:56.195Z,0.00
2022-10-02T04:08:56.221Z,0.00
2022-10-02T04:09:56.243Z,0.00
2022-10-02T04:10:56.272Z,0.00
2022-10-02T04:11:56.298Z,0.00
2022-10-02T04:12:56.328Z,0.00
2022-10-02T04:13:56.554Z,0.00
2022-10-02T04:14:56.402Z,0.00
2022-10-02T04:15:56.446Z,0.00
2022-10-02T04:16:56.437Z,0.00
2022-10-02T04:17:59.059Z,0.00
2022-10-02T04:18:56.488Z,0.00
2022-10-02T04:19:56.514Z,0.00
2022-10-02T04:20:56.547Z,0.00
2022-10-02T04:21:56.569Z,0.00
2022-10-02T04:22:56.603Z,0.00
2022-10-02T04:23:56.625Z,0.00
2022-10-02T04:24:56.652Z,0.00
2022-10-02T04:25:56.680Z,0.00
2022-10-02T04:26:56.704Z,0.00
2022-10-02T04:27:56.806Z,0.00
2022-10-02T04:28:56.760Z,0.00
2022-10-02T04:29:56.789Z,0.00
2022-10-02T04:30:56.829Z,0.00
2022-10-02T04:31:56.865Z,0.00
2022-10-02T04:32:56.868Z,0.00
2022-10-02T04:33:56.896Z,0.00
2022-10-02T04:34:56.922Z,0.00
2022-10-02T04:35:56.951Z,0.00
2022-10-02T04:36:56.976Z,0.00
2022-10-02T04:37:57.005Z,0.00
2022-10-02T04:38:57.030Z,0.00
2022-10-02T04:39:57.058Z,0.00
2022-10-02T04:40:57.085Z,0.00
2022-10-02T04:41:57.118Z,0.00
2022-10-02T04:42:57.140Z,0.00
2022-10-02T04:43:57.169Z,0.00
2022-10-02T04:44:57.194Z,0.00
2022-10-02T04:45:57.272Z,0.00
2022-10-02T04:46:57.264Z,0.00
2022-10-02T04:47:57.276Z,0.00
2022-10-02T04:48:57.304Z,0.00
2022-10-02T04:49:57.331Z,0.00
2022-10-02T04:50:57.356Z,0.00
2022-10-02T04:51:57.385Z,0.00
2022-10-02T04:52:57.411Z,0.00
2022-10-02T04:53:57.438Z,0.00
2022-10-02T04:54:57.463Z,0.00
2022-10-02T04:55:57.495Z,0.00
2022-10-02T04:56:57.520Z,0.00
2022-10-02T04:57:57.546Z,0.00
2022-10-02T04:58:57.572Z,0.00
2022-10-02T04:59:57.602Z,0.00
2022-10-02T05:00:57.667Z,0.00
2022-10-02T05:01:57.781Z,0.00
2022-10-02T05:02:57.698Z,0.00
2022-10-02T05:04:01.881Z,0.00
2022-10-02T05:04:57.735Z,0.00
2022-10-02T05:05:57.763Z,0.00
2022-10-02T05:06:57.788Z,0.00
2022-10-02T05:07:57.818Z,0.00
2022-10-02T05:08:57.844Z,0.00
2022-10-02T05:09:57.873Z,0.00
2022-10-02T05:10:57.898Z,0.00
2022-10-02T05:11:57.927Z,0.00
2022-10-02T05:12:57.952Z,0.00
2022-10-02T05:13:57.981Z,0.00
2022-10-02T05:14:58.006Z,0.00
2022-10-02T05:15:58.111Z,0.00
2022-10-02T05:16:58.061Z,0.00
2022-10-02T05:17:58.090Z,0.00
2022-10-02T05:18:58.134Z,0.00
2022-10-02T05:19:58.145Z,0.00
2022-10-02T05:20:58.172Z,0.00
2022-10-02T05:21:58.199Z,0.00
2022-10-02T05:22:58.225Z,0.00
2022-10-02T05:23:58.257Z,0.00
2022-10-02T05:24:58.280Z,0.00
2022-10-02T05:25:58.309Z,0.00
2022-10-02T05:26:58.335Z,0.00
2022-10-02T05:27:58.426Z,0.00
2022-10-02T05:28:58.392Z,0.00
2022-10-02T05:29:58.418Z,0.00
2022-10-02T05:30:58.460Z,0.00
2022-10-02T05:31:58.473Z,0.00
2022-10-02T05:32:58.499Z,0.00
2022-10-02T05:33:58.527Z,0.00
2022-10-02T05:34:58.572Z,0.00
2022-10-02T05:35:58.583Z,0.00
2022-10-02T05:36:58.608Z,0.00
2022-10-02T05:37:58.639Z,0.00
2022-10-02T05:38:58.663Z,0.00
2022-10-02T05:39:58.691Z,0.00
2022-10-02T05:40:58.718Z,0.00
2022-10-02T05:41:58.751Z,0.00
2022-10-02T05:42:58.773Z,0.00
2022-10-02T05:43:58.800Z,5.63
2022-10-02T05:44:58.826Z,5.63
2022-10-02T05:45:58.855Z,5.63
2022-10-02T05:46:59.015Z,5.63
2022-10-02T05:47:58.913Z,5.63
2022-10-02T05:48:58.937Z,11.25
2022-10-02T05:49:58.965Z,11.25
2022-10-02T05:50:59.017Z,11.25
2022-10-02T05:51:59.020Z,11.25
2022-10-02T05:52:59.049Z,11.25
2022-10-02T05:53:59.073Z,11.25
2022-10-02T05:54:59.099Z,11.25
2022-10-02T05:55:59.142Z,11.25
2022-10-02T05:56:59.156Z,11.25
2022-10-02T05:57:59.182Z,11.25
2022-10-02T05:58:59.210Z,11.25
2022-10-02T05:59:59.239Z,11.25
2022-10-02T06:00:59.313Z,11.25
2022-10-02T06:01:59.346Z,11.25
2022-10-02T06:02:59.319Z,11.25
2022-10-02T06:03:59.349Z,16.88
2022-10-02T06:04:59.376Z,16.88
2022-10-02T06:05:59.402Z,16.88
2022-10-02T06:06:59.444Z,16.88
2022-10-02T06:07:59.456Z,16.88
2022-10-02T06:08:59.482Z,16.88
2022-10-02T06:09:59.513Z,16.88
2022-10-02T06:10:59.539Z,16.88
2022-10-02T06:11:59.566Z,16.88
2022-10-02T06:12:59.592Z,16.88
2022-10-02T06:13:59.620Z,16.88
2022-10-02T06:14:59.648Z,16.88
2022-10-02T06:15:59.688Z,16.88
2022-10-02T06:16:59.703Z,16.88
2022-10-02T06:17:59.731Z,22.50
2022-10-02T06:18:59.757Z,22.50
2022-10-02T06:20:03.380Z,22.50
2022-10-02T06:20:59.811Z,22.50
2022-10-02T06:21:59.840Z,22.50
2022-10-02T06:22:59.892Z,22.50
2022-10-02T06:23:59.896Z,22.50
2022-10-02T06:24:59.921Z,22.50
2022-10-02T06:25:59.950Z,16.88
2022-10-02T06:26:59.975Z,16.88
2022-10-02T06:28:00.070Z,16.88
2022-10-02T06:29:00.032Z,11.25
2022-10-02T06:30:00.060Z,11.25
2022-10-02T06:31:00.092Z,11.25
2022-10-02T06:32:00.221Z,11.25
2022-10-02T06:33:00.149Z,16.88
2022-10-02T06:34:00.169Z,16.88
2022-10-02T06:35:00.196Z,22.50
2022-10-02T06:36:00.225Z,22.50
2022-10-02T06:37:00.252Z,28.13
2022-10-02T06:38:00.279Z,33.75
2022-10-02T06:39:00.323Z,39.38
2022-10-02T06:40:00.340Z,45.00
2022-10-02T06:41:00.361Z,45.00
2022-10-02T06:42:00.389Z,45.00
2022-10-02T06:43:00.415Z,45.00
2022-10-02T06:44:00.444Z,45.00
2022-10-02T06:45:00.472Z,39.38
2022-10-02T06:46:00.606Z,39.38
2022-10-02T06:47:00.527Z,39.38
2022-10-02T06:48:00.555Z,39.38
2022-10-02T06:49:00.582Z,39.38
2022-10-02T06:50:00.610Z,39.38
2022-10-02T06:51:00.636Z,39.38
2022-10-02T06:52:00.667Z,33.75
2022-10-02T06:53:00.693Z,33.75
2022-10-02T06:54:00.721Z,33.75
2022-10-02T06:55:00.765Z,33.75
2022-10-02T06:56:00.777Z,33.75
2022-10-02T06:57:00.802Z,39.38
2022-10-02T06:58:00.832Z,45.00
2022-10-02T06:59:00.857Z,50.63
2022-10-02T07:00:00.885Z,56.25
2022-10-02T07:01:01.018Z,61.88
2022-10-02T07:02:00.965Z,61.88
2022-10-02T07:03:00.968Z,61.88
2022-10-02T07:04:00.998Z,67.50
2022-10-02T07:05:01.024Z,73.13
2022-10-02T07:06:01.053Z,78.75
2022-10-02T07:07:01.079Z,78.75
2022-10-02T07:08:01.111Z,73.13
2022-10-02T07:09:01.135Z,67.50
2022-10-02T07:10:01.163Z,67.50
2022-10-02T07:11:01.276Z,67.50
2022-10-02T07:12:01.220Z,67.50
2022-10-02T07:13:01.246Z,67.50
2022-10-02T07:14:01.274Z,67.50
2022-10-02T07:15:01.299Z,61.88
2022-10-02T07:16:01.393Z,56.25
2022-10-02T07:17:01.356Z,56.25
2022-10-02T07:18:01.385Z,56.25
2022-10-02T07:19:01.413Z,61.88
2022-10-02T07:20:01.441Z,61.88
2022-10-02T07:21:01.469Z,61.88
2022-10-02T07:22:01.502Z,61.88
2022-10-02T07:23:01.524Z,61.88
2022-10-02T07:24:02.711Z,61.88
2022-10-02T07:25:01.579Z,61.88
2022-10-02T07:26:01.609Z,61.88
2022-10-02T07:27:01.652Z,61.88
2022-10-02T07:28:01.729Z,67.50
2022-10-02T07:29:01.691Z,67.50
2022-10-02T07:30:01.720Z,73.13
2022-10-02T07:31:01.748Z,67.50
2022-10-02T07:32:01.895Z,73.13
2022-10-02T07:33:01.803Z,73.13
2022-10-02T07:34:01.832Z,73.13
2022-10-02T07:35:01.861Z,73.13
2022-10-02T07:36:01.889Z,78.75
2022-10-02T07:37:01.915Z,78.75
2022-10-02T07:38:01.944Z,78.75
2022-10-02T07:39:01.973Z,78.75
2022-10-02T07:40:02.004Z,78.75
2022-10-02T07:41:02.027Z,73.13
2022-10-02T07:42:02.057Z,67.50
2022-10-02T07:43:02.124Z,61.88
2022-10-02T07:44:02.113Z,56.25
2022-10-02T07:45:02.139Z,56.25
2022-10-02T07:46:02.254Z,50.63
2022-10-02T07:47:02.195Z,45.00
2022-10-02T07:48:02.224Z,45.00
2022-10-02T07:49:02.254Z,45.00
2022-10-02T07:50:02.282Z,45.00
2022-10-02T07:51:02.307Z,50.63
2022-10-02T07:52:02.336Z,50.63
2022-10-02T07:53:02.363Z,50.63
2022-10-02T07:54:02.393Z,56.25
2022-10-02T07:55:02.420Z,56.25
2022-10-02T07:56:02.451Z,50.63
2022-10-02T07:57:05.193Z,56.25
2022-10-02T07:58:02.505Z,56.25
2022-10-02T07:59:02.552Z,61.88
2022-10-02T08:00:02.562Z,61.88
2022-10-02T08:01:02.591Z,56.25
2022-10-02T08:02:02.649Z,61.88
2022-10-02T08:03:02.749Z,61.88
2022-10-02T08:04:02.674Z,56.25
2022-10-02T08:05:02.701Z,56.25
2022-10-02T08:06:02.732Z,50.63
2022-10-02T08:07:02.756Z,50.63
2022-10-02T08:08:02.785Z,50.63
2022-10-02T08:09:02.814Z,50.63
2022-10-02T08:10:02.844Z,45.00
2022-10-02T08:11:02.871Z,45.00
2022-10-02T08:12:02.898Z,45.00
2022-10-02T08:13:02.925Z,45.00
2022-10-02T08:14:02.954Z,45.00
2022-10-02T08:15:03.059Z,50.63
2022-10-02T08:16:03.053Z,50.63
2022-10-02T08:17:03.038Z,56.25
2022-10-02T08:18:22.846Z,61.88
2022-10-02T08:19:03.096Z,61.88
2022-10-02T08:20:03.124Z,61.88
2022-10-02T08:21:03.152Z,67.50
2022-10-02T08:22:03.180Z,73.13
2022-10-02T08:23:03.207Z,78.75
2022-10-02T08:24:03.236Z,95.63
2022-10-02T08:25:03.264Z,106.88
2022-10-02T08:26:03.292Z,106.88
2022-10-02T08:27:03.318Z,112.50
2022-10-02T08:28:03.385Z,112.50
2022-10-02T08:29:03.376Z,112.50
2022-10-02T08:30:03.403Z,112.50
2022-10-02T08:31:03.447Z,112.50
2022-10-02T08:32:03.513Z,112.50
2022-10-02T08:33:03.486Z,112.50
2022-10-02T08:34:03.517Z,106.88
2022-10-02T08:35:03.543Z,101.25
2022-10-02T08:36:03.572Z,95.63
2022-10-02T08:37:03.600Z,95.63
2022-10-02T08:38:03.628Z,106.88
2022-10-02T08:39:03.654Z,112.50
2022-10-02T08:40:03.688Z,123.75
2022-10-02T08:41:03.712Z,123.75
2022-10-02T08:42:03.741Z,123.75
2022-10-02T08:43:03.770Z,129.38
2022-10-02T08:44:03.797Z,135.00
2022-10-02T08:45:03.830Z,140.63
2022-10-02T08:46:03.933Z,151.88
2022-10-02T08:47:03.927Z,163.13
2022-10-02T08:48:03.927Z,180.00
2022-10-02T08:49:03.949Z,191.25
2022-10-02T08:50:03.984Z,208.13
2022-10-02T08:51:03.996Z,225.00
2022-10-02T08:52:04.024Z,236.25
2022-10-02T08:53:04.056Z,241.88
2022-10-02T08:54:04.083Z,241.88
2022-10-02T08:55:04.112Z,241.88
2022-10-02T08:56:04.140Z,241.88
2022-10-02T08:57:04.170Z,247.50
2022-10-02T08:58:04.196Z,247.50
2022-10-02T08:59:04.227Z,253.13
2022-10-02T09:00:04.255Z,241.88
2022-10-02T09:01:04.336Z,236.25
2022-10-02T09:02:04.359Z,241.88
2022-10-02T09:03:04.361Z,241.88
2022-10-02T09:04:04.370Z,236.25
2022-10-02T09:05:04.400Z,236.25
2022-10-02T09:06:04.433Z,241.88
2022-10-02T09:07:04.459Z,241.88
2022-10-02T09:08:04.486Z,219.38
2022-10-02T09:09:04.522Z,180.00
2022-10-02T09:10:04.547Z,174.38
2022-10-02T09:11:04.574Z,185.63
2022-10-02T09:12:04.603Z,196.88
2022-10-02T09:13:04.635Z,196.88
2022-10-02T09:14:04.661Z,191.25
2022-10-02T09:15:04.691Z,213.75
2022-10-02T09:16:04.789Z,236.25
2022-10-02T09:17:04.752Z,258.75
2022-10-02T09:18:04.777Z,241.88
2022-10-02T09:19:04.824Z,163.13
2022-10-02T09:20:04.844Z,135.00
2022-10-02T09:21:08.147Z,151.88
2022-10-02T09:22:04.995Z,168.75
2022-10-02T09:23:04.925Z,180.00
2022-10-02T09:24:04.952Z,180.00
2022-10-02T09:25:04.990Z,185.63
2022-10-02T09:26:05.013Z,180.00
2022-10-02T09:27:05.041Z,157.50
2022-10-02T09:28:05.131Z,174.38
2022-10-02T09:29:05.101Z,174.38
2022-10-02T09:30:05.137Z,163.13
2022-10-02T09:31:05.160Z,163.13
2022-10-02T09:32:05.188Z,157.50
2022-10-02T09:33:05.220Z,163.13
2022-10-02T09:34:05.246Z,163.13
2022-10-02T09:35:05.295Z,168.75
2022-10-02T09:36:05.304Z,168.75
2022-10-02T09:37:05.335Z,168.75
2022-10-02T09:38:05.380Z,163.13
2022-10-02T09:39:05.394Z,168.75
2022-10-02T09:40:05.422Z,168.75
2022-10-02T09:41:05.453Z,174.38
2022-10-02T09:42:05.481Z,174.38
2022-10-02T09:43:05.511Z,174.38
2022-10-02T09:44:05.540Z,180.00
2022-10-02T09:45:05.571Z,174.38
2022-10-02T09:46:05.637Z,180.00
2022-10-02T09:47:05.629Z,174.38
2022-10-02T09:48:05.658Z,168.75
2022-10-02T09:49:05.689Z,157.50
2022-10-02T09:50:05.717Z,146.25
2022-10-02T09:51:05.764Z,163.13
2022-10-02T09:52:05.778Z,174.38
2022-10-02T09:53:05.806Z,191.25
2022-10-02T09:54:05.834Z,168.75
2022-10-02T09:55:05.864Z,151.88
2022-10-02T09:56:05.892Z,129.38
2022-10-02T09:57:05.924Z,129.38
2022-10-02T09:58:05.951Z,112.50
2022-10-02T09:59:05.982Z,95.63
2022-10-02T10:00:06.024Z,90.00
2022-10-02T10:01:06.082Z,78.75
2022-10-02T10:02:06.131Z,67.50
2022-10-02T10:03:06.099Z,67.50
2022-10-02T10:04:06.127Z,67.50
2022-10-02T10:05:06.928Z,73.13
2022-10-02T10:06:06.186Z,95.63
2022-10-02T10:07:06.236Z,112.50
2022-10-02T10:08:06.245Z,135.00
2022-10-02T10:09:06.274Z,168.75
2022-10-02T10:10:06.304Z,191.25
2022-10-02T10:11:06.335Z,213.75
2022-10-02T10:12:06.362Z,191.25
2022-10-02T10:13:06.393Z,191.25
2022-10-02T10:14:06.422Z,168.75
2022-10-02T10:15:09.167Z,129.38
2022-10-02T10:16:06.505Z,123.75
2022-10-02T10:17:06.512Z,151.88
2022-10-02T10:18:06.537Z,163.13
2022-10-02T10:19:06.570Z,168.75
2022-10-02T10:20:06.599Z,174.38
2022-10-02T10:21:06.631Z,174.38
2022-10-02T10:22:06.655Z,180.00
2022-10-02T10:23:06.791Z,185.63
2022-10-02T10:24:06.715Z,191.25
2022-10-02T10:25:06.751Z,196.88
2022-10-02T10:26:06.773Z,208.13
2022-10-02T10:27:08.209Z,219.38
2022-10-02T10:28:06.880Z,219.38
2022-10-02T10:29:06.867Z,208.13
2022-10-02T10:30:06.890Z,202.50
2022-10-02T10:31:06.923Z,202.50
2022-10-02T10:32:07.013Z,213.75
2022-10-02T10:33:06.982Z,225.00
2022-10-02T10:34:07.010Z,230.63
2022-10-02T10:35:49.591Z,213.75
2022-10-02T10:36:49.622Z,185.63
2022-10-02T10:37:49.653Z,174.38
2022-10-02T10:38:49.708Z,163.13
2022-10-02T10:39:49.710Z,163.13
2022-10-02T10:40:49.742Z,174.38
2022-10-02T10:41:49.770Z,180.00
2022-10-02T10:43:06.515Z,185.63
2022-10-02T10:43:49.828Z,208.13
2022-10-02T10:44:49.860Z,213.75
2022-10-02T10:48:15.777Z,241.88
2022-10-02T10:49:16.010Z,258.75
2022-10-02T10:52:48.831Z,258.75
2022-10-02T10:53:48.860Z,253.13
2022-10-02T10:54:48.894Z,236.25
2022-10-02T10:55:48.910Z,219.38
2022-10-02T10:56:49.140Z,196.88
2022-10-02T10:57:48.967Z,196.88
2022-10-02T10:58:48.997Z,202.50
2022-10-02T10:59:49.044Z,219.38
2022-10-02T11:00:49.127Z,225.00
2022-10-02T11:01:49.087Z,253.13
2022-10-02T11:02:49.332Z,298.13
2022-10-02T11:04:49.175Z,292.50
2022-10-02T11:06:36.765Z,236.25
2022-10-02T11:07:36.796Z,202.50
2022-10-02T11:08:36.834Z,168.75
2022-10-02T11:09:36.868Z,157.50
2022-10-02T11:10:37.104Z,163.13
2022-10-02T11:11:37.416Z,157.50
2022-10-02T11:12:36.945Z,157.50
2022-10-02T11:13:36.990Z,157.50
2022-10-02T11:14:37.016Z,151.88
2022-10-02T11:15:37.035Z,146.25
2022-10-02T11:17:37.108Z,140.63
2022-10-02T11:18:37.141Z,112.50
2022-10-02T11:19:37.166Z,106.88
2022-10-02T11:20:37.187Z,112.50
2022-10-02T11:21:37.453Z,146.25
2022-10-02T11:22:37.260Z,146.25
2022-10-02T11:23:37.287Z,151.88
2022-10-02T11:24:37.306Z,163.13
2022-10-02T11:25:37.335Z,168.75
2022-10-02T11:26:37.386Z,174.38
2022-10-02T11:27:37.397Z,168.75
2022-10-02T11:28:38.854Z,135.00
2022-10-02T11:30:41.570Z,101.25
2022-10-02T11:31:38.079Z,101.25
2022-10-02T11:32:37.545Z,123.75
2022-10-02T11:33:38.101Z,146.25
2022-10-02T11:34:37.617Z,157.50
2022-10-02T11:35:37.653Z,163.13
2022-10-02T11:36:37.678Z,168.75
2022-10-02T11:37:37.714Z,163.13
2022-10-02T11:38:37.741Z,135.00
2022-10-02T11:39:37.756Z,106.88
2022-10-02T11:40:37.793Z,90.00
2022-10-02T11:41:38.174Z,84.38
2022-10-02T11:42:37.878Z,84.38
2022-10-02T11:43:43.195Z,106.88
2022-10-02T11:44:37.918Z,129.38
2022-10-02T11:45:37.978Z,135.00
2022-10-02T11:46:38.174Z,146.25
2022-10-02T11:47:38.360Z,174.38
2022-10-02T11:48:38.020Z,196.88
2022-10-02T11:49:38.063Z,219.38
2022-10-02T11:50:38.095Z,236.25
2022-10-02T11:51:39.117Z,247.50
2022-10-02T11:52:38.151Z,241.88
2022-10-02T11:53:38.186Z,225.00
2022-10-02T11:54:38.199Z,219.38
2022-10-02T11:55:38.245Z,225.00
2022-10-02T11:56:38.270Z,230.63
2022-10-02T11:57:38.292Z,236.25
2022-10-02T11:58:38.541Z,247.50
2022-10-02T11:59:38.364Z,253.13
2022-10-02T12:00:38.389Z,253.13
2022-10-02T12:01:38.893Z,241.88
2022-10-02T12:02:38.524Z,236.25
2022-10-02T12:04:38.512Z,241.88
2022-10-02T12:05:38.528Z,236.25
2022-10-02T12:06:38.558Z,219.38
2022-10-02T12:07:38.604Z,213.75
2022-10-02T12:08:38.836Z,213.75
2022-10-02T12:09:38.658Z,213.75
2022-10-02T12:10:38.691Z,208.13
2022-10-02T12:11:39.273Z,213.75
2022-10-02T12:12:39.061Z,208.13
2022-10-02T12:13:38.778Z,202.50
2022-10-02T12:14:38.819Z,196.88
2022-10-02T12:15:38.829Z,185.63
2022-10-02T12:16:38.918Z,191.25
2022-10-02T12:17:38.889Z,185.63
2022-10-02T12:18:38.921Z,180.00
2022-10-02T12:19:38.950Z,202.50
2022-10-02T12:20:38.979Z,202.50
2022-10-02T12:21:39.493Z,196.88
2022-10-02T12:22:39.040Z,202.50
2022-10-02T12:23:39.070Z,202.50
2022-10-02T12:24:39.100Z,202.50
2022-10-02T12:25:39.131Z,191.25
2022-10-02T12:26:39.159Z,191.25
2022-10-02T12:27:39.191Z,174.38
2022-10-02T12:28:39.219Z,174.38
2022-10-02T12:29:39.249Z,157.50
2022-10-02T12:30:39.298Z,146.25
2022-10-02T12:31:39.985Z,146.25
2022-10-02T12:32:39.339Z,146.25
2022-10-02T12:33:39.368Z,157.50
2022-10-02T12:34:39.403Z,168.75
2022-10-02T12:35:39.429Z,174.38
2022-10-02T12:36:39.459Z,185.63
2022-10-02T12:37:39.487Z,168.75
2022-10-02T12:38:39.520Z,174.38
2022-10-02T12:39:39.549Z,168.75
2022-10-02T12:40:39.580Z,163.13
2022-10-02T12:41:39.942Z,157.50
2022-10-02T12:42:39.640Z,151.88
2022-10-02T12:43:39.669Z,135.00
2022-10-02T12:44:39.700Z,140.63
2022-10-02T12:45:39.774Z,168.75
2022-10-02T12:46:39.780Z,191.25
2022-10-02T12:47:39.793Z,185.63
2022-10-02T12:48:39.823Z,174.38
2022-10-02T12:49:39.849Z,157.50
2022-10-02T12:50:39.887Z,146.25
2022-10-02T12:51:40.421Z,146.25
2022-10-02T12:52:39.940Z,163.13
2022-10-02T12:53:39.972Z,191.25
2022-10-02T12:54:40.001Z,219.38
2022-10-02T12:55:40.030Z,225.00
2022-10-02T12:56:42.887Z,225.00
2022-10-02T12:57:40.090Z,225.00
2022-10-02T12:58:40.123Z,225.00
2022-10-02T12:59:40.151Z,225.00
2022-10-02T13:00:40.182Z,225.00
2022-10-02T13:01:40.604Z,219.38
2022-10-02T13:02:59.948Z,230.63
2022-10-02T13:03:40.272Z,253.13
2022-10-02T13:04:40.303Z,247.50
2022-10-02T13:05:44.599Z,230.63
2022-10-02T13:06:40.365Z,253.13